Ashcott, United Kingdom
Current Conditions -  °F | °C
As of 10:50 AM on Tuesday 21 Oct 2014 (Local Time) from EGDY Reporting Station
Few Clouds Few Clouds  
Wind Chill: 54°   Ceiling: Unl
Heat Index: 54°   Visibility: 6mi
Dew Point: 41°   Wind: 28mph
Humidity: 62%   Direction: 280°W
Pressure: 29.8"   Gusts: 40mph
Location:  51.11°N, 2.98°W
Report Text: EGDY 210950Z 28024G35KT 9999 FEW012 FEW020CB 12/05 Q1009 BLU TEMPO 4000 +SHRA SCT020TCU GRN
Loading
Personal Weather Stations






























Interactive Weather Map
Tropical Storm Tracking
New forecast layout! Learn more

10-Day Weather Forecast

Advertisements
Track Severe Weather on mobile